Time;durP1;ratioP1;P1;durP2;ratioP2;P2;SDS_P1;SDS_P2;PMS_P1;PMS_P2;Temp;Humidity;BMP_temperature;BMP_pressure;BME280_temperature;BME280_humidity;BME280_pressure;Samples;Min_cycle;Max_cycle;Signal;HPM_P1;HPM_P2
2022/07/31 00:00:41;;;;;;;67.43;4.80;;;23.00;17.20;;;;;;5080833;28;20430;-82
2022/07/31 00:03:07;;;;;;;67.77;5.10;;;23.00;17.40;;;;;;5083215;28;20902;-82
2022/07/31 00:05:34;;;;;;;68.60;5.17;;;23.00;17.30;;;;;;5081980;28;20761;-82
2022/07/31 00:08:00;;;;;;;68.20;5.10;;;22.90;17.30;;;;;;5082063;28;20422;-82
2022/07/31 00:10:26;;;;;;;68.30;5.00;;;22.90;18.20;;;;;;5080736;28;20442;-82
2022/07/31 00:12:52;;;;;;;68.47;4.70;;;22.80;18.60;;;;;;5082013;28;20403;-82
2022/07/31 00:15:18;;;;;;;68.47;5.03;;;22.80;19.30;;;;;;5080964;28;20395;-82
2022/07/31 00:17:44;;;;;;;69.63;4.80;;;22.80;19.60;;;;;;5080069;28;20251;-82
2022/07/31 00:20:12;;;;;;;70.70;5.30;;;22.80;20.00;;;;;;5081805;28;20441;-82
2022/07/31 00:22:41;;;;;;;68.57;5.20;;;22.80;20.40;;;;;;5078063;28;20421;-82
2022/07/31 00:25:08;;;;;;;67.37;4.77;;;22.70;21.10;;;;;;5082166;28;20409;-82
2022/07/31 00:27:34;;;;;;;68.83;4.87;;;22.70;21.60;;;;;;5078426;28;20859;-82
2022/07/31 00:29:59;;;;;;;66.90;5.07;;;22.70;22.60;;;;;;5080050;28;20438;-82
2022/07/31 00:32:25;;;;;;;67.00;4.30;;;22.70;23.60;;;;;;5081496;28;20191;-82
2022/07/31 00:34:51;;;;;;;71.57;4.43;;;22.70;24.30;;;;;;5076841;28;20232;-82
2022/07/31 00:37:17;;;;;;;70.30;4.80;;;22.60;25.30;;;;;;5081182;28;20403;-82
2022/07/31 00:39:43;;;;;;;69.13;5.00;;;22.60;26.40;;;;;;5077967;28;20160;-81
2022/07/31 00:42:20;;;;;;;68.20;4.20;;;22.60;28.40;;;;;;5081255;28;20169;-82
2022/07/31 00:44:45;;;;;;;67.97;4.77;;;22.50;29.10;;;;;;5081418;28;20378;-82
2022/07/31 00:47:12;;;;;;;70.03;5.10;;;22.50;30.30;;;;;;5081217;28;20394;-83
2022/07/31 00:49:37;;;;;;;68.57;5.23;;;22.50;30.60;;;;;;5080966;28;20446;-82
2022/07/31 00:52:04;;;;;;;67.97;4.50;;;22.50;31.00;;;;;;5080463;28;20441;-82
2022/07/31 00:54:29;;;;;;;68.07;5.07;;;22.50;31.80;;;;;;5078267;28;20198;-82
2022/07/31 00:56:55;;;;;;;69.70;6.00;;;22.40;32.40;;;;;;5077951;28;20402;-82
2022/07/31 00:59:21;;;;;;;72.13;5.30;;;22.50;33.40;;;;;;5080628;28;20195;-82
2022/07/31 01:01:47;;;;;;;69.17;5.40;;;22.40;35.30;;;;;;5079919;28;20176;-82
2022/07/31 01:04:15;;;;;;;69.27;5.60;;;22.40;35.20;;;;;;5078108;28;20203;-82
2022/07/31 01:06:41;;;;;;;67.07;4.93;;;22.40;35.90;;;;;;5079703;28;20164;-82
2022/07/31 01:09:06;;;;;;;68.43;5.43;;;22.40;36.90;;;;;;5080542;28;20541;-82
2022/07/31 01:12:23;;;;;;;69.13;5.80;;;22.40;37.90;;;;;;5079187;28;20694;-82
2022/07/31 01:14:55;;;;;;;67.00;5.03;;;22.30;39.70;;;;;;5069293;28;20176;-82
2022/07/31 01:17:23;;;;;;;69.97;5.50;;;22.30;40.00;;;;;;5075756;28;20482;-81
2022/07/31 01:19:51;;;;;;;70.17;5.20;;;22.20;40.80;;;;;;5080901;28;20402;-82
2022/07/31 01:23:01;;;;;;;68.40;5.20;;;22.20;41.60;;;;;;5080359;28;20406;-82
2022/07/31 01:25:55;;;;;;;68.40;5.50;;;22.20;41.40;;;;;;5075870;28;20428;-82
2022/07/31 01:28:43;;;;;;;68.20;5.17;;;22.20;42.00;;;;;;5077149;28;20410;-82
2022/07/31 01:31:13;;;;;;;67.67;5.20;;;22.10;41.70;;;;;;5080427;28;20398;-82
2022/07/31 01:33:49;;;;;;;69.80;5.47;;;22.10;40.70;;;;;;5079045;28;20816;-82
2022/07/31 01:36:25;;;;;;;69.20;5.50;;;22.10;40.60;;;;;;5077187;28;20473;-82
2022/07/31 01:38:55;;;;;;;66.97;4.80;;;22.10;39.60;;;;;;5080578;28;20445;-82
2022/07/31 01:41:27;;;;;;;68.30;5.00;;;22.00;40.70;;;;;;5079904;28;20406;-82
2022/07/31 01:43:55;;;;;;;66.67;4.37;;;21.90;41.40;;;;;;5079782;28;20387;-82
2022/07/31 01:46:23;;;;;;;68.50;5.37;;;21.90;41.00;;;;;;5080212;28;20403;-82
2022/07/31 01:48:51;;;;;;;68.43;4.57;;;21.90;39.60;;;;;;5080188;28;20485;-82
2022/07/31 01:51:18;;;;;;;66.87;4.77;;;21.80;40.70;;;;;;5079017;28;20493;-81
2022/07/31 01:53:47;;;;;;;71.13;5.07;;;21.80;39.10;;;;;;5076334;28;20417;-82
2022/07/31 01:56:17;;;;;;;67.37;4.60;;;21.80;38.90;;;;;;5076631;28;20754;-82
2022/07/31 01:58:44;;;;;;;68.50;5.17;;;21.80;38.20;;;;;;5077316;28;20484;-82
2022/07/31 02:01:13;;;;;;;66.67;4.80;;;21.80;37.40;;;;;;5077858;28;20774;-82
2022/07/31 02:03:40;;;;;;;68.23;4.37;;;21.80;37.80;;;;;;5075491;28;20402;-82
2022/07/31 02:06:07;;;;;;;67.20;3.80;;;21.90;37.00;;;;;;5077016;28;20908;-82
2022/07/31 02:08:34;;;;;;;72.53;5.13;;;21.80;36.20;;;;;;5076831;28;20426;-82
2022/07/31 02:11:00;;;;;;;69.53;4.60;;;21.80;36.20;;;;;;5077899;28;20429;-82
2022/07/31 02:13:27;;;;;;;67.77;4.30;;;21.80;35.80;;;;;;5076250;28;20409;-82
2022/07/31 02:15:55;;;;;;;66.90;4.67;;;21.80;35.10;;;;;;5077042;28;20406;-82
2022/07/31 02:18:22;;;;;;;69.10;4.70;;;21.80;36.30;;;;;;5074970;28;20426;-82
2022/07/31 02:20:50;;;;;;;66.67;5.03;;;21.70;35.80;;;;;;5075387;28;20491;-82
2022/07/31 02:23:16;;;;;;;66.47;4.40;;;21.70;35.60;;;;;;5076595;28;20405;-82
2022/07/31 02:25:43;;;;;;;70.03;5.20;;;21.80;35.80;;;;;;5078957;28;20989;-82
2022/07/31 02:28:14;;;;;;;68.63;5.00;;;21.70;35.70;;;;;;5076244;28;20921;-82
2022/07/31 02:30:43;;;;;;;67.50;4.70;;;21.70;36.00;;;;;;5075840;28;20401;-82
2022/07/31 02:33:13;;;;;;;67.77;4.27;;;21.70;36.00;;;;;;5075990;28;20846;-82
2022/07/31 02:35:39;;;;;;;69.23;5.00;;;21.70;36.30;;;;;;5076739;28;20398;-82
2022/07/31 02:38:07;;;;;;;67.60;4.90;;;21.70;36.70;;;;;;5076727;28;20444;-82
2022/07/31 02:40:34;;;;;;;67.77;4.37;;;21.70;35.80;;;;;;5080122;28;20458;-82
2022/07/31 02:43:02;;;;;;;68.17;4.90;;;21.50;37.20;;;;;;5083168;28;20398;-82
2022/07/31 02:45:28;;;;;;;66.97;4.60;;;21.60;35.70;;;;;;5083926;28;20800;-82
2022/07/31 02:47:54;;;;;;;66.67;4.20;;;21.60;36.20;;;;;;5080155;28;20418;-82
2022/07/31 02:50:20;;;;;;;67.97;4.27;;;21.60;35.50;;;;;;5083369;28;20797;-82
2022/07/31 02:52:46;;;;;;;67.20;5.00;;;21.60;35.50;;;;;;5079709;28;20414;-82
2022/07/31 02:55:12;;;;;;;67.97;4.87;;;21.60;35.50;;;;;;5079584;28;20987;-82
2022/07/31 02:57:38;;;;;;;70.90;4.50;;;21.60;37.90;;;;;;5079984;28;20210;-82
2022/07/31 03:00:25;;;;;;;69.73;4.90;;;21.60;36.70;;;;;;5080069;28;20799;-82
2022/07/31 03:02:52;;;;;;;68.07;5.20;;;21.60;33.90;;;;;;5078428;28;20164;-82
2022/07/31 03:05:19;;;;;;;66.37;4.23;;;21.50;36.00;;;;;;5079821;28;20406;-82
2022/07/31 03:07:44;;;;;;;66.87;4.50;;;21.50;36.60;;;;;;5078764;28;20430;-82
2022/07/31 03:10:11;;;;;;;67.87;5.00;;;21.50;36.70;;;;;;5078332;28;20460;-82
2022/07/31 03:12:44;;;;;;;66.67;4.50;;;21.60;37.00;;;;;;5082017;28;20186;-82
2022/07/31 03:15:15;;;;;;;68.67;5.33;;;21.60;38.50;;;;;;5083287;28;20398;-82
2022/07/31 03:17:42;;;;;;;68.07;5.10;;;21.60;38.10;;;;;;5080242;28;20505;-82
2022/07/31 03:20:08;;;;;;;66.70;5.10;;;21.60;38.20;;;;;;5079629;28;20405;-82
2022/07/31 03:22:34;;;;;;;66.47;4.43;;;21.60;38.20;;;;;;5081910;28;20422;-82
2022/07/31 03:25:01;;;;;;;67.07;5.00;;;21.60;38.80;;;;;;5083501;28;20407;-82
2022/07/31 03:27:27;;;;;;;67.00;4.80;;;21.60;39.70;;;;;;5081344;28;20245;-82
2022/07/31 03:29:56;;;;;;;68.47;4.90;;;21.60;39.20;;;;;;5083297;28;20446;-82
2022/07/31 03:32:22;;;;;;;66.90;4.70;;;21.60;39.20;;;;;;5080147;28;20876;-82
2022/07/31 03:34:48;;;;;;;70.80;4.70;;;21.60;39.60;;;;;;5079504;28;20406;-82
2022/07/31 03:37:13;;;;;;;72.97;4.80;;;21.60;39.70;;;;;;5080472;28;20407;-82
2022/07/31 03:39:39;;;;;;;66.00;4.53;;;21.60;40.30;;;;;;5079157;28;20218;-82
2022/07/31 03:42:10;;;;;;;67.97;4.60;;;21.60;40.80;;;;;;5080924;28;20171;-82
2022/07/31 03:44:39;;;;;;;67.33;4.40;;;21.60;41.80;;;;;;5084313;28;20770;-81
2022/07/31 03:47:05;;;;;;;65.77;4.40;;;21.50;43.40;;;;;;5084446;28;20402;-81
2022/07/31 03:49:32;;;;;;;70.00;4.80;;;21.60;42.40;;;;;;5083219;28;20449;-82
2022/07/31 03:51:58;;;;;;;67.00;4.30;;;21.50;43.40;;;;;;5081514;28;20425;-82
2022/07/31 03:54:24;;;;;;;66.80;4.73;;;21.50;43.10;;;;;;5085554;28;20424;-82
2022/07/31 03:56:52;;;;;;;66.10;4.67;;;21.50;43.30;;;;;;5085412;28;20402;-82
2022/07/31 03:59:19;;;;;;;68.67;5.10;;;21.50;43.50;;;;;;5081612;28;20422;-82
2022/07/31 04:01:45;;;;;;;66.70;4.90;;;21.50;44.70;;;;;;5083869;28;20501;-82
2022/07/31 04:04:12;;;;;;;67.63;5.37;;;21.50;46.20;;;;;;5080445;28;20797;-82
2022/07/31 04:06:38;;;;;;;68.80;5.00;;;21.50;46.30;;;;;;5080786;28;20410;-82
2022/07/31 04:09:03;;;;;;;66.87;4.70;;;21.50;47.00;;;;;;5083814;28;20427;-82
2022/07/31 04:11:29;;;;;;;67.57;4.67;;;21.50;47.30;;;;;;5083028;28;20176;-81
2022/07/31 04:13:55;;;;;;;68.03;5.10;;;21.50;46.60;;;;;;5081687;28;20171;-82
2022/07/31 04:16:21;;;;;;;67.30;4.90;;;21.50;45.80;;;;;;5083760;28;20627;-82
2022/07/31 04:18:47;;;;;;;67.90;5.03;;;21.50;44.70;;;;;;5082732;28;20202;-82
2022/07/31 04:21:13;;;;;;;66.80;4.67;;;21.50;45.60;;;;;;5080322;28;20399;-82
2022/07/31 04:23:38;;;;;;;66.40;4.80;;;21.50;45.40;;;;;;5079780;28;20409;-82
2022/07/31 04:26:04;;;;;;;66.73;4.53;;;21.50;44.30;;;;;;5082921;28;20402;-82
2022/07/31 04:28:30;;;;;;;67.13;4.83;;;21.50;44.80;;;;;;5081810;28;20187;-82
2022/07/31 04:30:56;;;;;;;65.93;4.47;;;21.50;44.80;;;;;;5077276;28;20996;-82
2022/07/31 04:33:22;;;;;;;66.87;4.10;;;21.50;45.20;;;;;;5082861;28;20194;-82
2022/07/31 04:35:47;;;;;;;69.07;4.50;;;21.50;44.50;;;;;;5082555;28;20161;-82
2022/07/31 04:38:16;;;;;;;66.50;4.77;;;21.50;45.10;;;;;;5082428;28;20205;-82
2022/07/31 04:40:42;;;;;;;67.40;4.33;;;21.50;45.10;;;;;;5081724;28;20274;-82
2022/07/31 04:43:08;;;;;;;67.07;5.20;;;21.50;44.40;;;;;;5081735;28;20401;-82
2022/07/31 04:45:33;;;;;;;70.47;4.67;;;21.50;44.10;;;;;;5080544;28;20418;-82
2022/07/31 04:47:59;;;;;;;67.47;5.00;;;21.50;44.30;;;;;;5080198;28;20187;-82
2022/07/31 04:50:25;;;;;;;67.00;4.37;;;21.50;45.00;;;;;;5080409;28;20234;-82
2022/07/31 04:52:50;;;;;;;66.83;4.30;;;21.50;44.40;;;;;;5077794;28;20184;-82
2022/07/31 04:55:16;;;;;;;65.90;4.20;;;21.60;45.60;;;;;;5078067;28;20195;-82
2022/07/31 04:57:42;;;;;;;67.90;4.17;;;21.60;45.70;;;;;;5076233;28;20195;-82
2022/07/31 05:00:09;;;;;;;66.17;4.00;;;21.60;45.40;;;;;;5081239;28;20532;-82
2022/07/31 05:02:35;;;;;;;70.47;4.40;;;21.60;43.40;;;;;;5079796;28;20168;-82
2022/07/31 05:05:01;;;;;;;66.00;4.07;;;21.60;43.10;;;;;;5077891;28;20465;-82
2022/07/31 05:07:27;;;;;;;69.30;4.13;;;21.60;43.60;;;;;;5080897;28;20441;-82
2022/07/31 05:09:53;;;;;;;67.07;3.90;;;21.60;42.80;;;;;;5079599;28;20414;-82
2022/07/31 05:12:18;;;;;;;66.20;3.80;;;21.60;43.70;;;;;;5077438;28;20168;-82
2022/07/31 05:14:44;;;;;;;66.60;3.87;;;21.60;43.20;;;;;;5081067;28;20813;-82
2022/07/31 05:17:10;;;;;;;67.37;4.00;;;21.60;44.00;;;;;;5080915;28;20550;-82
2022/07/31 05:19:35;;;;;;;68.53;4.03;;;21.60;43.20;;;;;;5075793;28;20619;-82
2022/07/31 05:22:03;;;;;;;67.43;4.13;;;21.60;40.40;;;;;;5080337;28;20191;-82
2022/07/31 05:24:29;;;;;;;68.00;4.33;;;21.70;42.10;;;;;;5081011;28;20156;-82
2022/07/31 05:26:55;;;;;;;70.33;4.50;;;21.70;42.10;;;;;;5077639;28;20786;-82
2022/07/31 05:29:21;;;;;;;71.60;4.13;;;21.80;38.50;;;;;;5081364;28;20418;-82
2022/07/31 05:31:46;;;;;;;71.03;3.80;;;21.90;38.60;;;;;;5077492;28;20202;-82
2022/07/31 05:34:12;;;;;;;67.00;3.37;;;22.00;36.10;;;;;;5082455;28;20168;-82
2022/07/31 05:36:38;;;;;;;70.77;3.67;;;22.00;34.70;;;;;;5077235;28;20168;-82
2022/07/31 05:39:04;;;;;;;71.27;3.47;;;22.00;31.40;;;;;;5076916;28;20215;-82
2022/07/31 05:41:32;;;;;;;66.30;3.80;;;22.00;31.00;;;;;;5076639;28;20176;-82
2022/07/31 05:43:58;;;;;;;66.07;3.53;;;22.10;29.80;;;;;;5077824;28;20527;-82
2022/07/31 05:46:23;;;;;;;66.57;3.57;;;22.10;31.60;;;;;;5077113;28;20401;-82
2022/07/31 05:48:49;;;;;;;66.50;3.70;;;22.20;29.50;;;;;;5077060;28;20453;-82
2022/07/31 05:51:15;;;;;;;69.17;3.90;;;22.20;28.80;;;;;;5075546;28;20544;-82
2022/07/31 05:53:41;;;;;;;66.80;3.20;;;22.20;28.00;;;;;;5081776;28;20191;-82
2022/07/31 05:56:07;;;;;;;66.47;3.53;;;22.30;28.30;;;;;;5080844;28;20214;-82
2022/07/31 05:58:33;;;;;;;68.60;4.07;;;22.30;26.80;;;;;;5081023;28;20422;-82
2022/07/31 06:01:00;;;;;;;67.77;3.57;;;22.30;27.40;;;;;;5081557;28;20451;-82
2022/07/31 06:03:30;;;;;;;67.40;3.40;;;22.30;28.20;;;;;;5080738;28;20878;-82
2022/07/31 06:05:56;;;;;;;66.90;3.50;;;22.20;28.80;;;;;;5076239;28;20395;-82
2022/07/31 06:08:22;;;;;;;67.80;3.17;;;22.30;28.90;;;;;;5080641;28;20493;-82
2022/07/31 06:10:48;;;;;;;67.80;3.00;;;22.30;28.30;;;;;;5081809;28;20168;-82
2022/07/31 06:13:13;;;;;;;67.20;3.17;;;22.40;28.00;;;;;;5079520;28;20420;-82
2022/07/31 06:15:42;;;;;;;66.33;3.40;;;22.40;27.70;;;;;;5080010;28;20171;-82
2022/07/31 06:18:09;;;;;;;68.37;3.30;;;22.50;28.50;;;;;;5081118;28;20721;-82
2022/07/31 06:20:35;;;;;;;64.80;3.00;;;22.50;25.80;;;;;;5083733;28;20464;-82
2022/07/31 06:23:00;;;;;;;66.27;3.40;;;22.60;26.10;;;;;;5084750;28;20402;-82
2022/07/31 06:25:27;;;;;;;65.30;3.00;;;22.60;21.80;;;;;;5085385;28;20229;-82
2022/07/31 06:27:52;;;;;;;68.90;3.30;;;22.70;21.20;;;;;;5079564;28;20184;-81
2022/07/31 06:30:18;;;;;;;65.40;3.00;;;22.80;20.40;;;;;;5080219;28;20944;-82
2022/07/31 06:32:44;;;;;;;76.83;4.13;;;22.80;22.40;;;;;;5084185;28;20174;-82
2022/07/31 06:35:09;;;;;;;67.73;3.27;;;22.80;21.60;;;;;;5083958;28;20169;-82
2022/07/31 06:37:35;;;;;;;64.97;2.87;;;22.70;18.60;;;;;;5085793;28;20183;-82
2022/07/31 06:40:01;;;;;;;66.30;2.90;;;22.60;21.10;;;;;;5085048;28;20222;-82
2022/07/31 06:42:27;;;;;;;65.10;2.77;;;22.70;20.40;;;;;;5084719;28;20163;-82
2022/07/31 06:44:53;;;;;;;67.73;3.40;;;22.80;19.00;;;;;;5079362;28;20410;-81
2022/07/31 06:47:21;;;;;;;66.60;3.40;;;22.80;19.30;;;;;;5078969;28;20398;-81
2022/07/31 06:49:47;;;;;;;70.13;3.57;;;22.90;19.30;;;;;;5083585;28;20925;-82
2022/07/31 06:52:13;;;;;;;65.37;2.70;;;22.80;20.90;;;;;;5084318;28;20424;-83
2022/07/31 06:54:38;;;;;;;66.50;3.80;;;22.80;20.70;;;;;;5084899;28;20167;-82
2022/07/31 06:57:04;;;;;;;66.77;3.83;;;22.80;18.60;;;;;;5084697;28;20167;-82
2022/07/31 06:59:30;;;;;;;65.93;3.37;;;22.80;19.50;;;;;;5083126;28;20196;-82
2022/07/31 07:01:56;;;;;;;68.13;3.27;;;22.90;18.20;;;;;;5079131;28;20275;-82
2022/07/31 07:04:21;;;;;;;68.97;3.43;;;22.90;18.10;;;;;;5084802;28;20164;-82
2022/07/31 07:06:47;;;;;;;68.17;3.70;;;22.80;21.60;;;;;;5083865;28;20240;-82
2022/07/31 07:09:13;;;;;;;66.60;3.30;;;22.90;20.80;;;;;;5080074;28;20674;-81
2022/07/31 07:11:39;;;;;;;65.90;3.43;;;22.80;22.00;;;;;;5084856;28;20168;-82
2022/07/31 07:14:05;;;;;;;68.70;3.13;;;22.80;22.80;;;;;;5080386;28;20256;-81
2022/07/31 07:16:31;;;;;;;67.43;3.67;;;22.90;21.40;;;;;;5085164;28;20922;-82
2022/07/31 07:18:57;;;;;;;66.60;3.23;;;22.80;21.00;;;;;;5082721;28;20480;-82
2022/07/31 07:21:22;;;;;;;68.07;3.50;;;22.80;20.10;;;;;;5079985;28;20160;-81
2022/07/31 07:23:48;;;;;;;66.40;3.43;;;22.80;20.20;;;;;;5082992;28;20232;-81
2022/07/31 07:26:14;;;;;;;65.80;3.47;;;22.90;21.50;;;;;;5082733;28;20501;-82
2022/07/31 07:28:40;;;;;;;66.83;3.20;;;23.00;14.50;;;;;;5080570;28;20184;-82
2022/07/31 07:31:06;;;;;;;68.43;3.50;;;22.90;12.90;;;;;;5083604;28;20202;-82
2022/07/31 07:33:32;;;;;;;67.17;3.43;;;22.80;16.50;;;;;;5082667;28;20402;-82
2022/07/31 07:35:57;;;;;;;66.60;3.83;;;22.80;19.90;;;;;;5083050;28;20164;-82
2022/07/31 07:38:23;;;;;;;66.33;3.90;;;22.80;15.50;;;;;;5082871;28;20517;-82
2022/07/31 07:40:50;;;;;;;66.30;3.43;;;22.80;16.00;;;;;;5079944;28;20659;-82
2022/07/31 07:43:16;;;;;;;66.10;3.50;;;22.80;16.70;;;;;;5078438;28;20164;-81
2022/07/31 07:45:42;;;;;;;69.47;3.63;;;22.70;17.50;;;;;;5084545;28;20398;-82
2022/07/31 07:48:07;;;;;;;65.73;3.37;;;22.70;14.80;;;;;;5082685;28;20552;-82
2022/07/31 07:50:33;;;;;;;67.57;3.73;;;22.70;16.30;;;;;;5078440;28;20175;-82
2022/07/31 07:52:59;;;;;;;65.57;3.80;;;22.70;15.30;;;;;;5079723;28;20199;-81
2022/07/31 07:55:25;;;;;;;68.67;3.70;;;22.70;15.10;;;;;;5078615;28;20767;-81
2022/07/31 07:57:51;;;;;;;67.37;3.40;;;22.70;18.50;;;;;;5076905;28;20187;-81
2022/07/31 08:00:17;;;;;;;66.47;3.53;;;22.90;15.80;;;;;;5079927;28;20195;-82
2022/07/31 08:02:44;;;;;;;65.40;3.67;;;23.10;15.30;;;;;;5078514;28;20432;-82
2022/07/31 08:05:09;;;;;;;66.37;3.50;;;23.20;13.40;;;;;;5081005;28;20164;-82
2022/07/31 08:07:37;;;;;;;66.23;3.70;;;23.30;14.90;;;;;;5078030;28;20398;-81
2022/07/31 08:10:05;;;;;;;66.00;3.70;;;23.50;9.50;;;;;;5077988;28;20226;-81
2022/07/31 08:12:31;;;;;;;67.57;3.70;;;23.60;12.00;;;;;;5077372;28;20399;-81
2022/07/31 08:14:56;;;;;;;65.40;3.27;;;23.80;8.90;;;;;;5078178;28;20505;-81
2022/07/31 08:17:23;;;;;;;66.37;3.63;;;24.00;6.40;;;;;;5079346;28;20216;-81
2022/07/31 08:19:52;;;;;;;66.77;3.20;;;24.00;8.20;;;;;;5079167;28;20214;-81
2022/07/31 08:22:18;;;;;;;66.80;3.47;;;24.00;12.00;;;;;;5080227;28;20446;-82
2022/07/31 08:24:44;;;;;;;66.43;3.17;;;24.20;7.50;;;;;;5079236;28;20408;-82
2022/07/31 08:27:25;;;;;;;65.17;3.10;;;24.20;3.70;;;;;;5079740;28;20894;-82
2022/07/31 08:29:56;;;;;;;66.40;3.20;;;24.00;8.90;;;;;;5077358;28;20371;-81
2022/07/31 08:32:24;;;;;;;65.97;2.73;;;24.10;6.80;;;;;;5077517;28;20411;-82
2022/07/31 08:34:50;;;;;;;64.97;2.70;;;24.20;8.40;;;;;;5076301;28;20414;-81
2022/07/31 08:37:18;;;;;;;67.23;2.50;;;24.30;12.90;;;;;;5075988;28;20402;-81
2022/07/31 08:39:45;;;;;;;64.73;2.60;;;24.30;16.00;;;;;;5075995;28;20450;-81
2022/07/31 08:42:11;;;;;;;65.80;3.00;;;24.40;8.00;;;;;;5076345;28;20426;-82
2022/07/31 08:44:41;;;;;;;65.43;2.63;;;24.30;9.30;;;;;;5077072;28;20404;-82
2022/07/31 08:47:11;;;;;;;66.10;3.03;;;24.40;4.90;;;;;;5079413;28;20390;-82
2022/07/31 08:49:42;;;;;;;65.80;2.60;;;24.20;3.30;;;;;;5077029;28;20425;-81
2022/07/31 08:52:23;;;;;;;66.77;3.27;;;24.20;10.10;;;;;;5078335;28;20430;-82
2022/07/31 08:54:50;;;;;;;65.87;3.00;;;24.30;11.30;;;;;;5078117;28;20383;-82
2022/07/31 08:57:23;;;;;;;64.87;2.37;;;24.40;7.80;;;;;;5094549;27;20529;-81
2022/07/31 08:59:52;;;;;;;65.30;2.80;;;24.60;2.00;;;;;;5092997;28;20479;-81
2022/07/31 09:02:17;;;;;;;65.30;2.53;;;24.80;3.60;;;;;;5094072;28;20202;-81
2022/07/31 09:04:43;;;;;;;64.90;2.57;;;24.90;2.00;;;;;;5093917;28;20399;-81
2022/07/31 09:07:13;;;;;;;65.60;2.70;;;24.90;1.40;;;;;;5094632;28;20659;-81
2022/07/31 09:09:46;;;;;;;64.63;2.37;;;25.10;1.00;;;;;;5094463;28;20241;-81
2022/07/31 09:12:12;;;;;;;67.10;2.60;;;25.00;1.00;;;;;;5094148;28;20379;-81
2022/07/31 09:14:38;;;;;;;65.70;2.70;;;24.90;1.00;;;;;;5092321;28;20988;-81
2022/07/31 09:17:08;;;;;;;65.03;2.60;;;24.90;1.00;;;;;;5093395;28;20445;-81
2022/07/31 09:19:44;;;;;;;66.30;2.50;;;24.80;1.00;;;;;;5092458;28;20550;-81
2022/07/31 09:22:23;;;;;;;65.90;3.00;;;25.00;1.00;;;;;;5093470;28;20404;-81
2022/07/31 09:24:50;;;;;;;64.70;2.60;;;25.00;1.00;;;;;;5093671;28;20761;-81
2022/07/31 09:27:16;;;;;;;64.90;2.67;;;24.90;1.00;;;;;;5093044;28;20422;-81
2022/07/31 09:29:44;;;;;;;65.27;2.50;;;25.00;1.00;;;;;;5093528;28;20455;-81
2022/07/31 09:32:18;;;;;;;65.37;2.93;;;25.00;1.00;;;;;;5093461;28;20943;-81
2022/07/31 09:34:45;;;;;;;66.10;3.30;;;25.10;1.00;;;;;;5093508;28;20382;-80
2022/07/31 09:37:13;;;;;;;64.73;2.30;;;25.20;1.00;;;;;;5092730;28;20878;-80
2022/07/31 09:39:40;;;;;;;65.07;2.47;;;25.30;1.00;;;;;;5093064;28;20441;-81
2022/07/31 09:42:07;;;;;;;65.53;2.37;;;25.30;1.00;;;;;;5092932;28;20402;-81
2022/07/31 09:44:42;;;;;;;65.07;2.60;;;25.20;1.00;;;;;;5091373;28;20400;-81
2022/07/31 09:47:28;;;;;;;64.60;2.33;;;25.10;1.00;;;;;;5095344;28;20409;-81
2022/07/31 09:49:59;;;;;;;64.80;2.43;;;25.10;1.00;;;;;;5094555;28;20908;-82
2022/07/31 09:52:27;;;;;;;65.10;2.60;;;25.10;1.00;;;;;;5093160;28;20461;-82
2022/07/31 09:55:00;;;;;;;65.10;3.00;;;25.00;2.10;;;;;;5097269;28;20404;-82
2022/07/31 09:57:26;;;;;;;66.73;2.80;;;24.90;6.10;;;;;;5094676;28;20488;-81
2022/07/31 09:59:52;;;;;;;64.60;2.27;;;24.90;9.50;;;;;;5098665;28;20396;-82
2022/07/31 10:02:18;;;;;;;65.17;2.70;;;25.00;7.40;;;;;;5101659;28;20636;-82
2022/07/31 10:04:46;;;;;;;65.20;2.80;;;25.10;8.00;;;;;;5101987;28;20238;-82
2022/07/31 10:07:13;;;;;;;64.20;2.50;;;25.30;8.60;;;;;;5092964;28;20415;-81
2022/07/31 10:09:40;;;;;;;65.40;2.40;;;25.40;1.90;;;;;;5089420;28;20421;-81
2022/07/31 10:12:10;;;;;;;64.70;2.30;;;25.60;1.00;;;;;;5083877;28;20399;-81
2022/07/31 10:14:40;;;;;;;65.60;2.50;;;25.70;1.00;;;;;;5083039;28;20389;-81
2022/07/31 10:17:06;;;;;;;65.27;2.50;;;25.80;1.00;;;;;;5082875;28;20817;-81
2022/07/31 10:19:36;;;;;;;66.30;2.60;;;25.90;1.00;;;;;;5089079;28;20433;-81
2022/07/31 10:22:04;;;;;;;65.67;2.60;;;26.00;1.00;;;;;;5089408;28;20403;-81
2022/07/31 10:24:39;;;;;;;65.30;3.20;;;26.30;1.00;;;;;;5084786;28;20488;-81
2022/07/31 10:27:05;;;;;;;67.00;2.60;;;26.40;1.00;;;;;;5088997;28;20386;-81
2022/07/31 10:29:35;;;;;;;66.80;2.63;;;26.40;1.00;;;;;;5089518;28;20481;-81
2022/07/31 10:32:01;;;;;;;65.63;2.73;;;26.30;1.00;;;;;;5084916;28;20413;-81
2022/07/31 10:34:27;;;;;;;66.23;2.70;;;26.40;1.00;;;;;;5087903;28;20398;-81
2022/07/31 10:37:00;;;;;;;66.10;2.30;;;26.60;1.00;;;;;;5088312;28;20679;-82
2022/07/31 10:39:46;;;;;;;65.97;2.30;;;26.60;1.00;;;;;;5086845;28;20966;-81
2022/07/31 10:42:34;;;;;;;65.33;1.90;;;26.70;1.00;;;;;;5084774;28;20831;-81
2022/07/31 10:45:08;;;;;;;65.97;2.47;;;26.70;1.00;;;;;;5088855;28;20401;-81
2022/07/31 10:47:34;;;;;;;67.70;2.80;;;27.00;1.00;;;;;;5083801;28;20399;-81
2022/07/31 10:50:00;;;;;;;67.40;2.60;;;27.20;1.00;;;;;;5084869;28;20390;-81
2022/07/31 10:52:35;;;;;;;69.70;3.10;;;27.60;1.00;;;;;;5088447;28;20429;-81
2022/07/31 10:55:12;;;;;;;66.00;2.90;;;27.90;1.00;;;;;;5087846;28;20394;-81
2022/07/31 10:57:38;;;;;;;65.97;1.80;;;27.90;1.00;;;;;;5087427;28;20413;-81
2022/07/31 11:00:19;;;;;;;67.07;2.40;;;28.00;1.00;;;;;;5087558;28;20402;-81
2022/07/31 11:02:46;;;;;;;66.90;2.50;;;28.10;1.00;;;;;;5088679;28;20737;-81
2022/07/31 11:05:22;;;;;;;66.27;1.97;;;28.20;1.00;;;;;;5088573;28;20409;-81
2022/07/31 11:07:59;;;;;;;65.90;2.47;;;28.30;1.00;;;;;;5088865;28;20417;-81
2022/07/31 11:10:25;;;;;;;66.37;2.57;;;28.70;1.00;;;;;;5087022;28;20391;-81
2022/07/31 11:13:03;;;;;;;66.07;3.00;;;28.90;1.00;;;;;;5088432;28;20441;-81
2022/07/31 11:15:29;;;;;;;65.57;2.70;;;29.10;1.00;;;;;;5088903;28;20193;-81
2022/07/31 11:17:57;;;;;;;66.60;2.67;;;29.10;1.00;;;;;;5088408;28;20448;-81
2022/07/31 11:20:24;;;;;;;68.20;2.80;;;29.00;1.00;;;;;;5087303;28;20466;-81
2022/07/31 11:23:04;;;;;;;68.40;2.40;;;29.00;1.00;;;;;;5086120;28;20410;-82
2022/07/31 11:25:32;;;;;;;65.77;2.33;;;29.30;1.00;;;;;;5082611;28;20824;-81
2022/07/31 11:28:12;;;;;;;67.77;2.73;;;29.30;1.00;;;;;;5081667;28;20809;-81
2022/07/31 11:30:56;;;;;;;67.77;2.80;;;29.20;1.00;;;;;;5086435;28;20413;-82
2022/07/31 11:33:41;;;;;;;65.87;2.90;;;29.00;1.00;;;;;;5088523;28;20387;-82
2022/07/31 11:36:12;;;;;;;66.60;3.03;;;29.00;1.00;;;;;;5070267;28;20434;-82
2022/07/31 11:38:44;;;;;;;67.07;3.27;;;29.00;1.00;;;;;;5087723;28;20415;-82
2022/07/31 11:41:10;;;;;;;66.67;2.43;;;29.20;1.00;;;;;;5088418;28;20466;-82
2022/07/31 11:43:37;;;;;;;69.40;2.80;;;29.60;1.00;;;;;;5087275;28;20401;-82
2022/07/31 11:46:04;;;;;;;68.70;2.40;;;30.00;1.00;;;;;;5081455;28;20180;-81
2022/07/31 11:48:31;;;;;;;67.13;2.23;;;30.10;1.00;;;;;;5082136;28;20448;-81
2022/07/31 11:50:59;;;;;;;66.37;2.63;;;29.90;1.00;;;;;;5083014;28;20403;-81
2022/07/31 11:53:25;;;;;;;66.30;2.73;;;29.90;1.00;;;;;;5087054;28;20473;-82
2022/07/31 11:55:56;;;;;;;67.70;3.67;;;30.10;1.00;;;;;;5086944;28;20462;-82
2022/07/31 11:58:25;;;;;;;67.37;2.63;;;30.30;1.00;;;;;;5087558;28;20438;-81
2022/07/31 12:00:53;;;;;;;66.13;2.60;;;30.60;1.00;;;;;;5082639;28;20402;-82
2022/07/31 12:03:23;;;;;;;67.20;3.43;;;30.90;1.00;;;;;;5086631;28;20844;-82
2022/07/31 12:05:53;;;;;;;67.57;3.47;;;31.20;1.00;;;;;;5086654;28;20445;-82
2022/07/31 12:08:21;;;;;;;68.23;3.20;;;31.10;1.00;;;;;;5087138;28;20521;-81
2022/07/31 12:10:47;;;;;;;66.60;3.80;;;31.20;1.00;;;;;;5085831;28;20446;-81
2022/07/31 12:13:18;;;;;;;68.00;3.63;;;31.20;1.00;;;;;;5087449;28;20428;-82
2022/07/31 12:16:03;;;;;;;67.10;3.90;;;31.10;1.00;;;;;;5082723;28;20426;-81
2022/07/31 12:18:31;;;;;;;67.30;3.10;;;30.90;1.00;;;;;;5087421;28;20503;-81
2022/07/31 12:21:04;;;;;;;67.37;3.53;;;30.50;1.00;;;;;;5086157;28;20398;-82
2022/07/31 12:23:43;;;;;;;68.27;3.60;;;30.40;1.00;;;;;;5085883;28;20442;-82
2022/07/31 12:26:21;;;;;;;66.70;3.27;;;30.30;1.00;;;;;;5087322;28;20820;-82
2022/07/31 12:28:56;;;;;;;69.00;2.93;;;29.60;1.00;;;;;;5087092;28;20422;-82
2022/07/31 12:31:22;;;;;;;65.57;2.20;;;29.60;1.00;;;;;;5086785;28;20402;-82
2022/07/31 12:33:47;;;;;;;65.87;2.80;;;29.90;1.00;;;;;;5087521;28;20413;-82
2022/07/31 12:36:15;;;;;;;65.80;2.30;;;29.80;1.00;;;;;;5087723;28;20184;-82
2022/07/31 12:38:41;;;;;;;66.77;2.50;;;29.90;1.00;;;;;;5087156;28;20186;-82
2022/07/31 12:41:07;;;;;;;67.27;3.27;;;30.20;1.00;;;;;;5087554;28;20448;-82
2022/07/31 12:43:32;;;;;;;67.17;3.67;;;30.10;1.00;;;;;;5087166;28;20398;-82
2022/07/31 12:46:04;;;;;;;72.57;5.40;;;30.10;1.00;;;;;;5087951;28;20171;-82